Pagina principale
METAR-TAF:

METAR-TAF

Aeroporti :

Cannes, Francia

latitudine: 43-33N, longitudine: 006-57E, altezza: 3 m

Osservazione

Il bollettino è stato emesso 39 minuti fa, alle 19:00 UTC
Vento calmo
Temperature 10°C
Umidità 87%
Pressione 1028 hPa
Visibilità 10 km o più
nessuna nube inferiore a 1500 m e nessun cumulonembo

METAR: LFMD 161900Z AUTO 00000KT CAVOK 10/08 Q1028

Ora: 20:39 (19:39 UTC)

Previsione

Il bollettino è stato emesso 5 ore e 39 minuti fa, alle 14:00 UTC
Previsione valida dal 16 alle 15 UTC al 17 alle 15 UTC
Vento 10 kt da sud/sud-est
Visibilità 10 km o più
Nuvoloso ad un'altezza di 3300 ft
Evoluzione graduale
dal 16 alle 18 UTC al 16 alle 20 UTC
Vento 6 kt da nord
Evoluzione graduale
dal 17 alle 09 UTC al 17 alle 11 UTC
Vento 12 kt da sud/sud-ovest

TAF: LFMD 161400Z 1615/1715 16010KT 9999 BKN033 BECMG 1618/1620 36006KT BECMG 1709/1711 20012KT

Osservazioni e previsioni meteorologiche di più di 4000 aeroporti (messaggi METAR e TAF).

Le stazioni disponibili sono rappresentate dai dischi gialli e rossi sulla carta.

Puntare il mouse per vedere il nome della stazione.

Clicca sopra per visualizzare le osservazioni e previsioni meteorologiche.

Per cambiare la mappa : fare clic sui pulsanti verdi con una croce nera per ingrandire, il pulsante verde con un trattino per diminuire, o sulla freccia verde per le mappe adiacenti.


METAR-TAF: